Sao Felix do Xingu, Brazil
Current Conditions -  °F | °C
As of 5:30 PM on Thursday 18 Dec 2014 (Local Time) from SBCJ Reporting Station
Few Clouds Few Clouds  
Wind Chill: 73°   Ceiling: Unl
Heat Index: 73°   Visibility: 6mi
Dew Point: 68°   Wind: 5mph
Humidity: 83%   Direction: 50°NE
Pressure: 29.88"   Gusts: NA
Location:  6.63°S, 51.99°W
Report Text: SBCJ 182130Z 05004KT 9999 FEW023 FEW030TCU 23/20 Q1012
Loading
Personal Weather Stations






























Interactive Weather Map New forecast layout! Learn more

10-Day Weather Forecast

Advertisements
Track Severe Weather on mobile